createdAt,value
2023-04-19T00:01:01.593Z,15.45
2023-04-19T00:03:30.354Z,13.85
2023-04-19T00:06:00.284Z,16.10
2023-04-19T00:08:27.035Z,13.00
2023-04-19T00:10:53.532Z,14.93
2023-04-19T00:13:20.566Z,13.63
2023-04-19T00:15:47.746Z,15.52
2023-04-19T00:18:14.401Z,17.15
2023-04-19T00:20:40.864Z,15.00
2023-04-19T00:23:07.278Z,13.60
2023-04-19T00:25:34.662Z,16.95
2023-04-19T00:28:01.317Z,16.33
2023-04-19T00:30:27.733Z,14.80
2023-04-19T00:32:54.357Z,16.65
2023-04-19T00:35:20.927Z,16.15
2023-04-19T00:37:47.327Z,17.35
2023-04-19T00:40:14.260Z,17.88
2023-04-19T00:42:40.752Z,16.75
2023-04-19T00:45:07.745Z,17.77
2023-04-19T00:47:36.511Z,16.00
2023-04-19T00:50:04.635Z,17.05
2023-04-19T00:52:32.795Z,15.13
2023-04-19T00:54:59.677Z,16.55
2023-04-19T00:57:26.298Z,16.27
2023-04-19T00:59:54.320Z,16.92
2023-04-19T01:02:22.038Z,18.73
2023-04-19T01:04:50.027Z,18.65
2023-04-19T01:07:18.000Z,18.10
2023-04-19T01:09:45.140Z,17.73
2023-04-19T01:12:11.634Z,16.45
2023-04-19T01:14:38.062Z,18.40
2023-04-19T01:17:04.457Z,19.27
2023-04-19T01:19:31.372Z,15.98
2023-04-19T01:21:58.239Z,16.17
2023-04-19T01:24:25.770Z,18.33
2023-04-19T01:26:52.298Z,15.50
2023-04-19T01:29:21.986Z,18.88
2023-04-19T01:31:53.341Z,17.17
2023-04-19T01:34:20.343Z,18.10
2023-04-19T01:36:46.762Z,15.25
2023-04-19T01:39:13.230Z,17.65
2023-04-19T01:41:39.809Z,17.42
2023-04-19T01:44:06.265Z,16.25
2023-04-19T01:46:32.697Z,15.55
2023-04-19T01:48:59.132Z,22.58
2023-04-19T01:51:25.795Z,15.88
2023-04-19T01:53:53.776Z,15.73
2023-04-19T01:56:22.732Z,17.77
2023-04-19T01:58:49.167Z,15.82
2023-04-19T02:01:15.689Z,20.35
2023-04-19T02:03:42.313Z,13.70
2023-04-19T02:06:13.046Z,15.63
2023-04-19T02:08:40.551Z,14.98
2023-04-19T02:11:11.976Z,15.63
2023-04-19T02:13:38.370Z,17.38
2023-04-19T02:16:07.045Z,16.70
2023-04-19T02:18:38.236Z,18.67
2023-04-19T02:21:09.240Z,17.25
2023-04-19T02:23:36.330Z,13.55
2023-04-19T02:26:03.197Z,14.88
2023-04-19T02:28:32.618Z,17.08
2023-04-19T02:30:59.316Z,17.83
2023-04-19T02:33:28.716Z,13.18
2023-04-19T02:35:55.090Z,14.90
2023-04-19T02:38:21.498Z,16.05
2023-04-19T02:40:47.960Z,14.38
2023-04-19T02:43:14.388Z,14.43
2023-04-19T02:45:43.045Z,15.52
2023-04-19T02:48:09.544Z,14.95
2023-04-19T02:50:38.560Z,15.15
2023-04-19T02:53:05.758Z,15.05
2023-04-19T02:55:32.340Z,15.10
2023-04-19T02:58:09.419Z,13.98
2023-04-19T03:00:43.032Z,15.07
2023-04-19T03:03:14.500Z,12.50
2023-04-19T03:05:41.147Z,13.90
2023-04-19T03:08:07.728Z,14.18
2023-04-19T03:10:34.588Z,12.70
2023-04-19T03:13:01.018Z,12.40
2023-04-19T03:15:27.519Z,13.93
2023-04-19T03:17:54.249Z,13.52
2023-04-19T03:20:21.875Z,11.82
2023-04-19T03:22:49.166Z,13.30
2023-04-19T03:25:15.910Z,10.50
2023-04-19T03:27:47.899Z,13.18
2023-04-19T03:30:18.071Z,10.98
2023-04-19T03:32:44.521Z,11.75
2023-04-19T03:35:12.792Z,13.95
2023-04-19T03:37:39.475Z,12.13
2023-04-19T03:40:06.968Z,11.32
2023-04-19T03:42:34.207Z,11.65
2023-04-19T03:45:10.165Z,10.60
2023-04-19T03:47:40.852Z,10.10
2023-04-19T03:50:08.197Z,9.82
2023-04-19T03:52:36.040Z,10.73
2023-04-19T03:55:02.492Z,9.50
2023-04-19T03:57:38.308Z,10.60
2023-04-19T04:00:14.120Z,8.32
2023-04-19T04:02:40.788Z,10.40
2023-04-19T04:05:08.286Z,10.32
2023-04-19T04:07:35.879Z,11.45
2023-04-19T04:10:04.165Z,8.60
2023-04-19T04:15:06.795Z,9.15
2023-04-19T04:17:36.333Z,8.45
2023-04-19T04:20:06.098Z,8.75
2023-04-19T04:22:32.786Z,9.38
2023-04-19T04:25:01.264Z,9.32
2023-04-19T04:27:34.256Z,7.28
2023-04-19T04:30:02.055Z,8.10
2023-04-19T04:32:30.131Z,9.57
2023-04-19T04:35:00.740Z,6.82
2023-04-19T04:37:36.992Z,7.93
2023-04-19T04:40:11.029Z,8.43
2023-04-19T04:42:37.699Z,8.52
2023-04-19T04:45:05.662Z,7.93
2023-04-19T04:47:34.424Z,8.18
2023-04-19T04:50:04.995Z,7.43
2023-04-19T04:52:32.235Z,8.77
2023-04-19T04:55:07.300Z,10.43
2023-04-19T04:57:36.749Z,8.48
2023-04-19T05:00:06.845Z,7.45
2023-04-19T05:02:41.315Z,8.50
2023-04-19T05:05:11.130Z,7.88
2023-04-19T05:07:37.830Z,8.93
2023-04-19T05:10:04.598Z,8.15
2023-04-19T05:12:40.318Z,6.97
2023-04-19T05:15:07.777Z,7.60
2023-04-19T05:17:35.804Z,8.20
2023-04-19T05:20:02.388Z,6.40
2023-04-19T05:22:29.808Z,10.85
2023-04-19T05:24:56.550Z,8.00
2023-04-19T05:27:22.995Z,8.05
2023-04-19T05:29:51.347Z,7.35
2023-04-19T05:32:18.176Z,8.73
2023-04-19T05:34:50.449Z,8.52
2023-04-19T05:37:17.167Z,9.35
2023-04-19T05:39:44.756Z,8.35
2023-04-19T05:42:11.698Z,8.23
2023-04-19T05:44:38.187Z,6.70
2023-04-19T05:47:05.324Z,10.48
2023-04-19T05:49:51.992Z,12.95
2023-04-19T05:52:25.548Z,7.50
2023-04-19T05:54:55.463Z,7.45
2023-04-19T05:57:21.964Z,8.23
2023-04-19T05:59:48.608Z,7.45
2023-04-19T06:02:18.831Z,8.57
2023-04-19T06:04:45.887Z,8.50
2023-04-19T06:07:22.284Z,8.73
2023-04-19T06:09:57.999Z,7.25
2023-04-19T06:12:24.477Z,8.13
2023-04-19T06:14:51.946Z,9.52
2023-04-19T06:17:24.313Z,7.40
2023-04-19T06:19:51.641Z,8.43
2023-04-19T06:22:18.122Z,9.20
2023-04-19T06:24:46.335Z,6.22
2023-04-19T06:27:12.915Z,9.82
2023-04-19T06:29:39.430Z,8.75
2023-04-19T06:32:05.985Z,7.38
2023-04-19T06:34:32.363Z,8.75
2023-04-19T06:36:58.842Z,12.55
2023-04-19T06:39:25.552Z,7.25
2023-04-19T06:41:51.968Z,8.77
2023-04-19T06:44:18.637Z,6.65
2023-04-19T06:46:45.398Z,7.50
2023-04-19T06:49:11.819Z,7.45
2023-04-19T06:51:39.376Z,7.68
2023-04-19T06:54:05.754Z,5.43
2023-04-19T06:56:47.925Z,8.07
2023-04-19T06:59:16.610Z,11.30
2023-04-19T07:01:44.172Z,8.13
2023-04-19T07:04:11.343Z,7.65
2023-04-19T07:06:38.719Z,8.90
2023-04-19T07:09:06.499Z,7.50
2023-04-19T07:11:32.947Z,9.77
2023-04-19T07:14:01.337Z,7.07
2023-04-19T07:16:28.112Z,9.70
2023-04-19T07:18:54.698Z,5.38
2023-04-19T07:21:21.781Z,7.70
2023-04-19T07:23:48.218Z,7.18
2023-04-19T07:26:14.935Z,6.65
2023-04-19T07:28:41.516Z,9.80
2023-04-19T07:31:08.005Z,10.20
2023-04-19T07:33:34.616Z,10.10
2023-04-19T07:36:01.580Z,6.35
2023-04-19T07:38:28.204Z,7.15
2023-04-19T07:40:54.588Z,6.75
2023-04-19T07:43:21.173Z,5.47
2023-04-19T07:45:47.577Z,8.65
2023-04-19T07:48:14.007Z,8.55
2023-04-19T07:50:40.837Z,10.02
2023-04-19T07:53:07.282Z,6.15
2023-04-19T07:55:33.793Z,7.40
2023-04-19T07:58:01.938Z,7.05
2023-04-19T08:00:29.874Z,7.93
2023-04-19T08:02:59.269Z,7.07
2023-04-19T08:05:26.651Z,5.97
2023-04-19T08:07:53.608Z,5.95
2023-04-19T08:10:22.236Z,7.53
2023-04-19T08:13:04.476Z,8.70
2023-04-19T08:18:05.168Z,6.18
2023-04-19T08:20:32.381Z,5.65
2023-04-19T08:23:04.516Z,5.45
2023-04-19T08:25:34.140Z,6.95
2023-04-19T08:28:00.630Z,8.98
2023-04-19T08:30:27.089Z,5.95
2023-04-19T08:32:56.278Z,6.63
2023-04-19T08:35:25.003Z,5.45
2023-04-19T08:37:51.510Z,9.68
2023-04-19T08:40:18.165Z,6.47
2023-04-19T08:42:44.550Z,5.88
2023-04-19T08:45:27.104Z,5.85
2023-04-19T08:50:35.331Z,8.13
2023-04-19T08:53:24.215Z,5.43
2023-04-19T08:56:10.722Z,8.05
2023-04-19T08:58:57.694Z,4.80
2023-04-19T09:01:34.529Z,9.02
2023-04-19T09:04:20.759Z,9.32
2023-04-19T09:06:49.757Z,6.78
2023-04-19T09:11:59.919Z,4.45
2023-04-19T09:14:27.501Z,6.40
2023-04-19T09:16:54.447Z,5.97
2023-04-19T09:19:24.986Z,7.43
2023-04-19T09:21:53.894Z,8.38
2023-04-19T09:25:04.464Z,6.00
2023-04-19T09:27:43.195Z,9.27
2023-04-19T09:30:17.505Z,4.70
2023-04-19T09:32:50.873Z,5.43
2023-04-19T09:35:17.425Z,5.50
2023-04-19T09:38:05.605Z,6.93
2023-04-19T09:40:33.525Z,5.18
2023-04-19T09:43:12.973Z,6.38
2023-04-19T09:45:47.108Z,4.28
2023-04-19T09:48:13.919Z,3.88
2023-04-19T09:51:00.671Z,4.47
2023-04-19T09:53:34.170Z,12.70
2023-04-19T09:56:03.023Z,4.88
2023-04-19T09:58:41.571Z,3.95
2023-04-19T10:01:16.136Z,3.75
2023-04-19T10:03:45.861Z,2.75
2023-04-19T10:06:40.183Z,2.63
2023-04-19T10:09:04.234Z,6.40
2023-04-19T10:11:39.056Z,7.03
2023-04-19T10:14:08.206Z,2.80
2023-04-19T10:16:36.445Z,4.65
2023-04-19T10:19:10.197Z,2.67
2023-04-19T10:21:38.100Z,4.60
2023-04-19T10:24:05.639Z,6.13
2023-04-19T10:27:12.093Z,4.40
2023-04-19T10:29:54.270Z,3.72
2023-04-19T10:32:20.849Z,5.20
2023-04-19T10:34:47.407Z,3.85
2023-04-19T10:37:14.055Z,6.60
2023-04-19T10:39:44.711Z,6.60
2023-04-19T10:42:11.259Z,6.80
2023-04-19T10:44:37.710Z,6.15
2023-04-19T10:47:05.917Z,6.60
2023-04-19T10:49:45.396Z,5.07
2023-04-19T10:52:31.297Z,4.65
2023-04-19T10:54:57.789Z,3.83
2023-04-19T10:57:25.297Z,8.07
2023-04-19T11:00:25.553Z,6.03
2023-04-19T11:02:52.121Z,5.93
2023-04-19T11:05:20.309Z,4.40
2023-04-19T11:07:46.823Z,3.58
2023-04-19T11:10:13.439Z,4.72
2023-04-19T11:12:44.136Z,4.80
2023-04-19T11:15:11.784Z,3.45
2023-04-19T11:17:39.484Z,4.82
2023-04-19T11:20:09.260Z,4.07
2023-04-19T11:22:44.595Z,2.90
2023-04-19T11:25:21.803Z,7.90
2023-04-19T11:27:52.005Z,5.45
2023-04-19T11:30:28.146Z,3.78
2023-04-19T11:32:57.966Z,4.05
2023-04-19T11:35:26.203Z,4.63
2023-04-19T11:37:54.150Z,4.80
2023-04-19T11:40:22.522Z,6.38
2023-04-19T11:43:03.076Z,3.38
2023-04-19T11:45:35.443Z,3.95
2023-04-19T11:48:06.204Z,3.72
2023-04-19T11:50:43.758Z,4.90
2023-04-19T11:53:20.479Z,3.53
2023-04-19T11:55:54.536Z,2.67
2023-04-19T11:58:45.324Z,5.35
2023-04-19T12:01:22.404Z,4.97
2023-04-19T12:03:54.321Z,5.28
2023-04-19T12:06:30.376Z,4.90
2023-04-19T12:08:57.146Z,6.38
2023-04-19T12:11:26.256Z,3.97
2023-04-19T12:14:13.329Z,4.82
2023-04-19T12:16:40.351Z,9.52
2023-04-19T12:19:20.537Z,5.28
2023-04-19T12:21:47.493Z,2.97
2023-04-19T12:24:17.167Z,3.72
2023-04-19T12:26:56.169Z,6.78
2023-04-19T12:29:22.952Z,5.18
2023-04-19T12:31:49.488Z,7.07
2023-04-19T12:34:15.902Z,4.60
2023-04-19T12:36:42.320Z,6.07
2023-04-19T12:39:09.650Z,6.13
2023-04-19T12:41:36.059Z,3.15
2023-04-19T12:44:02.679Z,6.30
2023-04-19T12:46:29.428Z,3.50
2023-04-19T12:48:55.849Z,3.50
2023-04-19T12:51:22.260Z,6.47
2023-04-19T12:53:49.984Z,3.78
2023-04-19T12:56:17.474Z,5.75
2023-04-19T12:58:44.059Z,5.18
2023-04-19T13:01:10.864Z,7.00
2023-04-19T13:03:37.843Z,3.55
2023-04-19T13:06:04.645Z,4.40
2023-04-19T13:08:44.174Z,4.20
2023-04-19T13:11:12.461Z,4.43
2023-04-19T13:13:39.427Z,3.22
2023-04-19T13:16:07.791Z,3.83
2023-04-19T13:18:35.075Z,3.58
2023-04-19T13:21:01.540Z,4.05
2023-04-19T13:23:27.986Z,3.47
2023-04-19T13:25:54.379Z,4.78
2023-04-19T13:28:20.807Z,4.68
2023-04-19T13:30:47.230Z,3.03
2023-04-19T13:33:13.644Z,4.97
2023-04-19T13:35:40.074Z,3.75
2023-04-19T13:38:07.064Z,3.20
2023-04-19T13:40:33.455Z,3.22
2023-04-19T13:42:59.952Z,5.70
2023-04-19T13:45:26.671Z,4.05
2023-04-19T13:47:53.264Z,8.43
2023-04-19T13:50:19.751Z,3.53
2023-04-19T13:52:46.166Z,4.20
2023-04-19T13:55:12.571Z,4.03
2023-04-19T13:57:39.011Z,6.80
2023-04-19T14:00:06.224Z,4.18
2023-04-19T14:02:34.355Z,4.45
2023-04-19T14:05:00.869Z,7.68
2023-04-19T14:07:27.316Z,3.28
2023-04-19T14:09:53.850Z,3.63
2023-04-19T14:12:20.490Z,3.60
2023-04-19T14:14:46.903Z,6.03
2023-04-19T14:17:13.455Z,4.20
2023-04-19T14:19:39.890Z,3.72
2023-04-19T14:22:06.384Z,3.15
2023-04-19T14:24:32.893Z,3.53
2023-04-19T14:27:10.402Z,4.20
2023-04-19T14:29:37.820Z,4.78
2023-04-19T14:32:20.922Z,2.28
2023-04-19T14:34:51.421Z,6.15
2023-04-19T14:37:18.942Z,6.28
2023-04-19T14:39:45.963Z,4.05
2023-04-19T14:42:12.377Z,4.93
2023-04-19T14:44:38.898Z,4.60
2023-04-19T14:47:05.461Z,6.50
2023-04-19T14:49:31.900Z,3.17
2023-04-19T14:51:58.376Z,4.65
2023-04-19T14:54:24.817Z,5.05
2023-04-19T14:56:51.302Z,4.68
2023-04-19T14:59:17.921Z,3.55
2023-04-19T15:01:44.590Z,2.88
2023-04-19T15:04:11.443Z,4.80
2023-04-19T15:06:38.065Z,6.10
2023-04-19T15:09:05.177Z,5.85
2023-04-19T15:11:31.662Z,5.70
2023-04-19T15:13:58.034Z,6.68
2023-04-19T15:16:25.092Z,4.93
2023-04-19T15:18:51.868Z,3.53
2023-04-19T15:21:21.698Z,7.47
2023-04-19T15:23:49.649Z,4.35
2023-04-19T15:26:17.218Z,3.83
2023-04-19T15:28:44.062Z,6.72
2023-04-19T15:31:10.841Z,4.25
2023-04-19T15:33:37.716Z,3.83
2023-04-19T15:36:04.616Z,7.18
2023-04-19T15:38:31.747Z,6.53
2023-04-19T15:40:59.209Z,4.70
2023-04-19T15:43:26.079Z,5.32
2023-04-19T15:45:52.489Z,3.88
2023-04-19T15:48:20.491Z,5.88
2023-04-19T15:50:47.273Z,4.57
2023-04-19T15:53:13.973Z,4.63
2023-04-19T15:55:41.367Z,6.78
2023-04-19T15:58:08.216Z,5.25
2023-04-19T16:00:34.681Z,5.68
2023-04-19T16:03:01.400Z,5.45
2023-04-19T16:05:28.220Z,5.75
2023-04-19T16:08:03.416Z,4.28
2023-04-19T16:10:30.400Z,3.97
2023-04-19T16:12:56.965Z,7.10
2023-04-19T16:15:23.578Z,6.38
2023-04-19T16:17:50.967Z,5.10
2023-04-19T16:20:17.392Z,3.92
2023-04-19T16:22:43.893Z,4.35
2023-04-19T16:25:11.249Z,4.97
2023-04-19T16:27:42.160Z,4.25
2023-04-19T16:30:10.417Z,4.18
2023-04-19T16:32:37.552Z,4.60
2023-04-19T16:35:05.608Z,4.05
2023-04-19T16:37:32.838Z,5.20
2023-04-19T16:40:05.137Z,3.55
2023-04-19T16:42:31.530Z,3.67
2023-04-19T16:44:57.903Z,4.75
2023-04-19T16:47:24.319Z,7.10
2023-04-19T16:49:50.816Z,3.42
2023-04-19T16:52:17.462Z,4.80
2023-04-19T16:54:44.665Z,3.10
2023-04-19T16:57:11.464Z,5.47
2023-04-19T16:59:38.160Z,3.95
2023-04-19T17:02:07.379Z,6.82
2023-04-19T17:04:34.375Z,5.53
2023-04-19T17:07:01.108Z,11.23
2023-04-19T17:09:27.837Z,4.63
2023-04-19T17:11:54.971Z,4.10
2023-04-19T17:14:21.567Z,11.55
2023-04-19T17:16:48.269Z,4.88
2023-04-19T17:19:15.451Z,5.43
2023-04-19T17:21:42.793Z,3.72
2023-04-19T17:24:09.200Z,5.90
2023-04-19T17:26:35.755Z,5.90
2023-04-19T17:29:02.423Z,4.53
2023-04-19T17:31:28.891Z,5.20
2023-04-19T17:33:55.770Z,5.85
2023-04-19T17:36:22.210Z,3.65
2023-04-19T17:38:48.645Z,5.28
2023-04-19T17:41:18.327Z,5.65
2023-04-19T17:43:45.631Z,5.05
2023-04-19T17:46:12.384Z,5.38
2023-04-19T17:48:38.884Z,5.18
2023-04-19T17:51:05.826Z,4.70
2023-04-19T17:53:32.226Z,4.68
2023-04-19T17:55:59.024Z,4.80
2023-04-19T17:58:25.425Z,9.68
2023-04-19T18:00:51.799Z,4.97
2023-04-19T18:03:18.648Z,6.60
2023-04-19T18:05:45.235Z,5.95
2023-04-19T18:08:13.304Z,8.48
2023-04-19T18:10:40.154Z,4.25
2023-04-19T18:13:06.546Z,6.60
2023-04-19T18:15:33.151Z,5.15
2023-04-19T18:17:59.577Z,5.72
2023-04-19T18:20:26.350Z,4.60
2023-04-19T18:22:53.179Z,7.20
2023-04-19T18:25:19.912Z,5.43
2023-04-19T18:27:48.361Z,5.80
2023-04-19T18:30:14.808Z,4.50
2023-04-19T18:32:41.235Z,5.47
2023-04-19T18:35:11.202Z,6.68
2023-04-19T18:37:38.065Z,4.45
2023-04-19T18:40:09.050Z,4.85
2023-04-19T18:42:35.580Z,4.57
2023-04-19T18:45:04.025Z,5.10
2023-04-19T18:47:30.983Z,5.18
2023-04-19T18:50:05.264Z,4.45
2023-04-19T18:52:35.421Z,6.55
2023-04-19T18:55:02.543Z,5.30
2023-04-19T18:57:30.472Z,4.43
2023-04-19T19:00:00.173Z,5.90
2023-04-19T19:02:27.548Z,5.38
2023-04-19T19:04:58.564Z,6.78
2023-04-19T19:10:01.495Z,4.55
2023-04-19T19:12:30.544Z,7.78
2023-04-19T19:14:56.903Z,6.35
2023-04-19T19:17:27.914Z,7.07
2023-04-19T19:19:54.774Z,6.03
2023-04-19T19:22:27.549Z,6.28
2023-04-19T19:24:55.714Z,5.03
2023-04-19T19:27:22.214Z,6.20
2023-04-19T19:29:48.600Z,6.57
2023-04-19T19:32:15.121Z,4.40
2023-04-19T19:34:53.804Z,7.30
2023-04-19T19:37:22.261Z,6.10
2023-04-19T19:39:48.664Z,8.45
2023-04-19T19:42:19.086Z,10.90
2023-04-19T19:44:45.747Z,5.40
2023-04-19T19:47:12.965Z,4.65
2023-04-19T19:50:00.500Z,6.25
2023-04-19T19:52:30.168Z,9.77
2023-04-19T19:54:56.956Z,5.45
2023-04-19T19:59:56.479Z,8.18
2023-04-19T20:02:24.277Z,7.45
2023-04-19T20:04:51.192Z,5.65
2023-04-19T20:07:37.203Z,5.82
2023-04-19T20:10:11.712Z,7.05
2023-04-19T20:15:07.620Z,8.63
2023-04-19T20:17:34.147Z,9.18
2023-04-19T20:20:05.514Z,6.07
2023-04-19T20:22:32.333Z,10.27
2023-04-19T20:24:59.604Z,9.13
2023-04-19T20:27:25.982Z,6.55
2023-04-19T20:29:52.389Z,9.27
2023-04-19T20:32:18.968Z,5.70
2023-04-19T20:34:45.762Z,6.50
2023-04-19T20:37:12.681Z,6.18
2023-04-19T20:39:39.123Z,5.07
2023-04-19T20:42:07.642Z,4.78
2023-04-19T20:44:34.192Z,6.47
2023-04-19T20:47:00.626Z,7.88
2023-04-19T20:49:27.036Z,6.40
2023-04-19T20:51:53.487Z,9.60
2023-04-19T20:54:20.254Z,6.38
2023-04-19T20:56:49.772Z,6.25
2023-04-19T20:59:16.369Z,7.22
2023-04-19T21:01:43.569Z,6.63
2023-04-19T21:04:10.477Z,7.22
2023-04-19T21:06:36.917Z,8.02
2023-04-19T21:09:04.192Z,20.73
2023-04-19T21:11:30.607Z,19.75
2023-04-19T21:13:56.981Z,16.83
2023-04-19T21:16:23.438Z,11.38
2023-04-19T21:18:49.824Z,9.32
2023-04-19T21:21:16.271Z,7.40
2023-04-19T21:23:42.708Z,9.43
2023-04-19T21:26:09.512Z,9.20
2023-04-19T21:28:36.022Z,9.30
2023-04-19T21:31:02.973Z,10.80
2023-04-19T21:33:29.450Z,11.23
2023-04-19T21:35:56.111Z,7.60
2023-04-19T21:38:22.506Z,6.65
2023-04-19T21:40:49.406Z,7.35
2023-04-19T21:43:17.125Z,7.35
2023-04-19T21:45:43.655Z,7.85
2023-04-19T21:48:10.141Z,10.25
2023-04-19T21:50:36.865Z,6.07
2023-04-19T21:53:03.333Z,11.13
2023-04-19T21:55:32.154Z,8.00
2023-04-19T21:57:58.869Z,9.25
2023-04-19T22:00:25.504Z,13.00
2023-04-19T22:02:52.052Z,10.38
2023-04-19T22:05:18.597Z,9.85
2023-04-19T22:07:45.541Z,6.38
2023-04-19T22:10:13.602Z,10.75
2023-04-19T22:12:48.260Z,6.95
2023-04-19T22:15:18.088Z,10.73
2023-04-19T22:17:46.132Z,6.47
2023-04-19T22:20:13.269Z,6.80
2023-04-19T22:22:39.656Z,7.65
2023-04-19T22:25:06.522Z,8.68
2023-04-19T22:27:33.239Z,6.35
2023-04-19T22:29:59.599Z,6.40
2023-04-19T22:32:26.042Z,7.05
2023-04-19T22:34:52.420Z,7.72
2023-04-19T22:37:18.890Z,7.18
2023-04-19T22:39:45.435Z,6.78
2023-04-19T22:42:11.960Z,5.45
2023-04-19T22:44:38.319Z,9.07
2023-04-19T22:47:04.852Z,5.25
2023-04-19T22:49:32.850Z,5.57
2023-04-19T22:52:00.137Z,6.85
2023-04-19T22:54:26.595Z,6.75
2023-04-19T22:56:54.206Z,9.25
2023-04-19T22:59:20.739Z,7.07
2023-04-19T23:01:47.234Z,6.63
2023-04-19T23:04:14.778Z,6.28
2023-04-19T23:06:44.467Z,5.80
2023-04-19T23:09:13.597Z,7.85
2023-04-19T23:11:40.727Z,6.43
2023-04-19T23:14:10.307Z,4.32
2023-04-19T23:16:38.792Z,6.28
2023-04-19T23:19:07.253Z,8.40
2023-04-19T23:21:34.549Z,8.00
2023-04-19T23:24:01.034Z,4.40
2023-04-19T23:26:27.489Z,5.28
2023-04-19T23:28:53.904Z,5.50
2023-04-19T23:31:20.414Z,5.95
2023-04-19T23:33:46.861Z,7.40
2023-04-19T23:36:13.321Z,6.45
2023-04-19T23:38:39.722Z,10.35
2023-04-19T23:41:09.648Z,8.18
2023-04-19T23:43:36.378Z,5.63
2023-04-19T23:46:03.021Z,6.97
2023-04-19T23:48:29.544Z,8.30
2023-04-19T23:50:55.985Z,8.20
2023-04-19T23:53:22.423Z,5.18
2023-04-19T23:55:48.836Z,7.10
2023-04-19T23:58:15.204Z,4.65
